Paradise, Missouri
Current Conditions -  °F | °C
As of 11:53 AM on Wednesday 28 Jan 2015 (Local Time) from KMCI Reporting Station
Broken Clouds Broken Clouds  
Wind Chill: 66°   Ceiling: 25000
Heat Index: 66°   Visibility: 10mi
Dew Point: 38°   Wind: 18mph
Humidity: 36%   Direction: 180°S
Pressure: 29.84"   Gusts: NA
Location:  39.3944°N, 94.5382°W
Report Text: KMCI 281753Z 18016KT 10SM BKN250 19/03 A2984 RMK AO2 SLP102 T01890033 10189 20039 58023
Loading
Personal Weather Stations






























Interactive Weather Map New forecast layout! Learn more

10-Day Weather Forecast

Advertisements
Track Severe Weather on mobile